createdAt,value
2019-05-20T00:01:48.009Z,16.60
2019-05-20T00:04:16.536Z,16.60
2019-05-20T00:06:45.024Z,16.50
2019-05-20T00:09:13.556Z,16.40
2019-05-20T00:11:42.116Z,16.30
2019-05-20T00:14:10.987Z,16.30
2019-05-20T00:16:39.614Z,16.30
2019-05-20T00:19:08.216Z,16.30
2019-05-20T00:21:36.684Z,16.30
2019-05-20T00:24:05.236Z,16.30
2019-05-20T00:26:33.776Z,16.30
2019-05-20T00:29:02.334Z,16.30
2019-05-20T00:31:30.873Z,16.30
2019-05-20T00:33:59.432Z,16.30
2019-05-20T00:36:27.965Z,16.20
2019-05-20T00:39:13.136Z,16.20
2019-05-20T00:41:41.668Z,16.10
2019-05-20T00:44:10.684Z,16.10
2019-05-20T00:46:39.144Z,16.10
2019-05-20T00:49:07.953Z,16.00
2019-05-20T00:51:36.625Z,16.00
2019-05-20T00:54:05.636Z,15.90
2019-05-20T00:56:34.333Z,15.90
2019-05-20T00:59:03.209Z,15.90
2019-05-20T01:01:31.683Z,15.90
2019-05-20T01:04:00.234Z,15.90
2019-05-20T01:06:28.772Z,15.90
2019-05-20T01:08:57.332Z,15.90
2019-05-20T01:11:25.869Z,15.90
2019-05-20T01:13:54.428Z,15.80
2019-05-20T01:16:23.321Z,15.90
2019-05-20T01:18:51.932Z,15.80
2019-05-20T01:21:20.420Z,15.90
2019-05-20T01:23:48.904Z,15.80
2019-05-20T01:26:17.440Z,15.90
2019-05-20T01:28:46.000Z,15.90
2019-05-20T01:31:14.528Z,15.90
2019-05-20T01:33:43.484Z,15.90
2019-05-20T01:36:12.092Z,15.90
2019-05-20T01:38:40.585Z,15.90
2019-05-20T01:41:09.115Z,15.90
2019-05-20T01:43:37.672Z,15.90
2019-05-20T01:46:06.200Z,15.90
2019-05-20T01:48:34.828Z,15.90
2019-05-20T01:51:03.291Z,15.80
2019-05-20T01:53:31.850Z,15.80
2019-05-20T01:56:00.741Z,15.70
2019-05-20T01:58:29.304Z,15.80
2019-05-20T02:00:57.836Z,15.80
2019-05-20T02:03:31.642Z,15.80
2019-05-20T02:05:56.505Z,15.80
2019-05-20T02:08:25.040Z,15.80
2019-05-20T02:10:56.598Z,15.80
2019-05-20T02:13:25.494Z,15.70
2019-05-20T02:15:55.692Z,15.70
2019-05-20T02:18:24.405Z,15.70
2019-05-20T02:20:52.980Z,15.60
2019-05-20T02:23:21.500Z,15.60
2019-05-20T02:25:51.831Z,15.60
2019-05-20T02:28:20.356Z,15.60
2019-05-20T02:30:48.918Z,15.50
2019-05-20T02:33:17.443Z,15.50
2019-05-20T02:35:46.064Z,15.40
2019-05-20T02:38:14.588Z,15.40
2019-05-20T02:40:43.066Z,15.40
2019-05-20T02:43:12.165Z,15.50
2019-05-20T02:45:40.851Z,15.40
2019-05-20T02:48:09.307Z,15.50
2019-05-20T02:50:37.863Z,15.40
2019-05-20T02:53:06.316Z,15.40
2019-05-20T02:55:34.872Z,15.40
2019-05-20T02:58:03.469Z,15.40
2019-05-20T03:00:32.830Z,15.40
2019-05-20T03:03:01.356Z,15.30
2019-05-20T03:05:30.181Z,15.30
2019-05-20T03:07:59.004Z,15.30
2019-05-20T03:10:27.489Z,15.30
2019-05-20T03:12:56.017Z,15.30
2019-05-20T03:15:24.576Z,15.30
2019-05-20T03:17:53.110Z,15.30
2019-05-20T03:20:21.729Z,15.30
2019-05-20T03:22:50.696Z,15.30
2019-05-20T03:25:19.581Z,15.30
2019-05-20T03:27:48.377Z,15.30
2019-05-20T03:30:17.064Z,15.20
2019-05-20T03:32:45.712Z,15.20
2019-05-20T03:35:14.466Z,15.10
2019-05-20T03:37:43.037Z,15.10
2019-05-20T03:40:11.996Z,15.10
2019-05-20T03:42:40.553Z,15.10
2019-05-20T03:45:09.447Z,15.10
2019-05-20T03:47:37.931Z,15.10
2019-05-20T03:50:08.078Z,15.10
2019-05-20T03:52:36.601Z,15.00
2019-05-20T03:55:07.619Z,15.00
2019-05-20T03:57:36.220Z,14.90
2019-05-20T04:00:07.175Z,15.00
2019-05-20T04:02:35.696Z,15.00
2019-05-20T04:05:05.664Z,15.00
2019-05-20T04:07:34.149Z,15.00
2019-05-20T04:10:02.751Z,15.00
2019-05-20T04:12:31.581Z,15.00
2019-05-20T04:15:00.114Z,15.10
2019-05-20T04:17:28.677Z,15.10
2019-05-20T04:19:57.205Z,15.10
2019-05-20T04:22:25.759Z,15.00
2019-05-20T04:24:54.211Z,15.10
2019-05-20T04:27:22.773Z,15.00
2019-05-20T04:29:51.303Z,14.90
2019-05-20T04:32:19.788Z,14.90
2019-05-20T04:34:48.401Z,14.90
2019-05-20T04:37:16.950Z,14.90
2019-05-20T04:39:45.480Z,14.90
2019-05-20T04:42:14.389Z,14.90
2019-05-20T04:44:42.915Z,14.90
2019-05-20T04:47:11.421Z,14.90
2019-05-20T04:49:39.952Z,14.90
2019-05-20T04:52:08.484Z,15.00
2019-05-20T04:54:37.039Z,15.00
2019-05-20T04:57:05.504Z,15.00
2019-05-20T04:59:33.993Z,15.20
2019-05-20T05:02:02.532Z,15.20
2019-05-20T05:04:31.084Z,15.30
2019-05-20T05:06:59.615Z,15.40
2019-05-20T05:09:28.401Z,15.40
2019-05-20T05:11:57.263Z,15.50
2019-05-20T05:14:25.747Z,15.60
2019-05-20T05:16:54.208Z,15.70
2019-05-20T05:19:22.741Z,15.70
2019-05-20T05:21:51.450Z,15.80
2019-05-20T05:24:20.031Z,15.80
2019-05-20T05:26:48.661Z,15.90
2019-05-20T05:29:17.192Z,16.00
2019-05-20T05:31:45.683Z,16.00
2019-05-20T05:34:14.281Z,16.00
2019-05-20T05:36:42.835Z,16.10
2019-05-20T05:39:11.431Z,16.10
2019-05-20T05:41:39.907Z,16.10
2019-05-20T05:44:08.445Z,16.10
2019-05-20T05:46:37.363Z,16.20
2019-05-20T05:49:05.829Z,16.10
2019-05-20T05:51:34.366Z,16.10
2019-05-20T05:54:02.915Z,16.20
2019-05-20T05:56:31.371Z,16.20
2019-05-20T05:58:59.857Z,16.30
2019-05-20T06:01:28.389Z,16.40
2019-05-20T06:03:56.959Z,16.40
2019-05-20T06:06:25.483Z,16.50
2019-05-20T06:08:54.312Z,16.60
2019-05-20T06:11:22.845Z,16.70
2019-05-20T06:13:51.372Z,16.80
2019-05-20T06:16:35.418Z,16.90
2019-05-20T06:18:50.256Z,17.00
2019-05-20T06:21:18.816Z,17.20
2019-05-20T06:23:47.340Z,17.30
2019-05-20T06:26:15.828Z,17.40
2019-05-20T06:28:44.282Z,17.40
2019-05-20T06:31:12.948Z,17.40
2019-05-20T06:33:41.783Z,17.40
2019-05-20T06:36:10.306Z,17.40
2019-05-20T06:38:40.852Z,17.40
2019-05-20T06:41:09.457Z,17.40
2019-05-20T06:43:38.091Z,17.40
2019-05-20T06:46:06.697Z,17.50
2019-05-20T06:48:35.287Z,17.50
2019-05-20T06:51:03.860Z,17.50
2019-05-20T06:53:32.388Z,17.60
2019-05-20T06:56:00.940Z,17.70
2019-05-20T06:58:29.396Z,17.70
2019-05-20T07:00:57.957Z,17.70
2019-05-20T07:03:26.489Z,17.80
2019-05-20T07:05:55.349Z,17.80
2019-05-20T07:08:23.926Z,17.90
2019-05-20T07:10:52.448Z,17.90
2019-05-20T07:13:20.999Z,18.00
2019-05-20T07:15:49.539Z,18.00
2019-05-20T07:18:18.079Z,18.00
2019-05-20T07:20:46.531Z,18.10
2019-05-20T07:23:15.017Z,18.00
2019-05-20T07:25:43.900Z,18.10
2019-05-20T07:28:12.439Z,18.10
2019-05-20T07:30:41.052Z,18.10
2019-05-20T07:33:09.594Z,18.10
2019-05-20T07:35:38.452Z,18.10
2019-05-20T07:38:06.913Z,18.10
2019-05-20T07:40:35.540Z,18.10
2019-05-20T07:43:04.610Z,18.10
2019-05-20T07:45:34.689Z,18.00
2019-05-20T07:48:04.561Z,18.00
2019-05-20T07:50:35.632Z,18.00
2019-05-20T07:53:05.852Z,18.10
2019-05-20T07:55:37.382Z,18.10
2019-05-20T07:58:08.445Z,18.10
2019-05-20T08:00:37.196Z,18.10
2019-05-20T08:03:05.818Z,18.10
2019-05-20T08:05:34.483Z,18.10
2019-05-20T08:08:03.047Z,18.10
2019-05-20T08:10:32.123Z,18.00
2019-05-20T08:13:00.727Z,18.00
2019-05-20T08:15:29.364Z,17.90
2019-05-20T08:17:57.968Z,17.80
2019-05-20T08:20:26.528Z,17.80
2019-05-20T08:22:54.990Z,17.80
2019-05-20T08:25:23.654Z,17.80
2019-05-20T08:27:52.139Z,17.70
2019-05-20T08:30:32.783Z,17.60
2019-05-20T08:33:01.767Z,17.50
2019-05-20T08:35:30.297Z,17.50
2019-05-20T08:37:59.002Z,17.50
2019-05-20T08:40:28.040Z,17.40
2019-05-20T08:42:56.923Z,17.40
2019-05-20T08:45:25.451Z,17.40
2019-05-20T08:47:54.002Z,17.30
2019-05-20T08:50:22.701Z,17.20
2019-05-20T08:52:51.679Z,17.10
2019-05-20T08:55:20.360Z,16.90
2019-05-20T08:57:48.899Z,16.80
2019-05-20T09:00:24.249Z,16.70
2019-05-20T09:02:53.134Z,16.50
2019-05-20T09:05:21.823Z,16.40
2019-05-20T09:08:02.228Z,16.40
2019-05-20T09:10:20.859Z,16.30
2019-05-20T09:12:49.383Z,16.20
2019-05-20T09:15:18.484Z,16.20
2019-05-20T09:17:46.944Z,16.10
2019-05-20T09:20:16.036Z,16.10
2019-05-20T09:22:44.839Z,16.10
2019-05-20T09:25:14.468Z,16.10
2019-05-20T09:27:43.203Z,16.10
2019-05-20T09:30:13.525Z,16.00
2019-05-20T09:32:43.181Z,16.00
2019-05-20T09:35:12.559Z,16.00
2019-05-20T09:37:41.198Z,16.00
2019-05-20T09:40:10.077Z,16.10
2019-05-20T09:42:40.749Z,16.10
2019-05-20T09:45:09.335Z,16.30
2019-05-20T09:47:37.960Z,16.40
2019-05-20T09:50:07.542Z,16.50
2019-05-20T09:52:36.218Z,16.60
2019-05-20T09:55:06.343Z,16.70
2019-05-20T09:57:34.893Z,16.80
2019-05-20T10:00:05.623Z,16.90
2019-05-20T10:02:38.001Z,17.00
2019-05-20T10:05:06.416Z,17.20
2019-05-20T10:07:34.978Z,17.30
2019-05-20T10:10:05.452Z,17.50
2019-05-20T10:12:45.516Z,17.60
2019-05-20T10:15:06.151Z,17.70
2019-05-20T10:17:34.756Z,17.80
2019-05-20T10:20:04.791Z,18.00
2019-05-20T10:22:33.251Z,18.20
2019-05-20T10:25:02.141Z,18.20
2019-05-20T10:27:31.155Z,18.30
2019-05-20T10:29:59.703Z,18.40
2019-05-20T10:32:28.183Z,18.50
2019-05-20T10:34:56.644Z,18.60
2019-05-20T10:37:25.185Z,18.80
2019-05-20T10:39:53.811Z,19.00
2019-05-20T10:42:22.276Z,19.20
2019-05-20T10:44:50.831Z,19.50
2019-05-20T10:47:19.631Z,19.90
2019-05-20T10:49:48.087Z,20.50
2019-05-20T10:52:16.583Z,21.00
2019-05-20T10:54:45.111Z,21.30
2019-05-20T10:57:14.034Z,21.80
2019-05-20T10:59:42.525Z,22.10
2019-05-20T11:02:11.317Z,22.10
2019-05-20T11:04:39.891Z,22.00
2019-05-20T11:07:08.785Z,21.80
2019-05-20T11:09:37.344Z,21.40
2019-05-20T11:12:05.799Z,21.10
2019-05-20T11:14:34.636Z,20.80
2019-05-20T11:17:03.108Z,20.40
2019-05-20T11:19:31.662Z,20.30
2019-05-20T11:22:00.198Z,20.00
2019-05-20T11:24:28.760Z,19.90
2019-05-20T11:26:57.298Z,19.70
2019-05-20T11:29:25.843Z,19.50
2019-05-20T11:31:54.410Z,19.40
2019-05-20T11:34:22.919Z,19.20
2019-05-20T11:36:51.420Z,19.10
2019-05-20T11:39:32.609Z,19.10
2019-05-20T11:41:54.586Z,19.10
2019-05-20T11:44:20.695Z,19.10
2019-05-20T11:46:49.251Z,19.20
2019-05-20T11:49:17.715Z,19.30
2019-05-20T11:51:46.567Z,19.30
2019-05-20T11:54:15.027Z,19.60
2019-05-20T11:56:43.580Z,19.90
2019-05-20T11:59:12.112Z,20.10
2019-05-20T12:01:40.605Z,20.40
2019-05-20T12:04:09.124Z,21.10
2019-05-20T12:06:37.622Z,21.60
2019-05-20T12:09:07.220Z,22.10
2019-05-20T12:11:35.773Z,22.70
2019-05-20T12:14:04.444Z,23.60
2019-05-20T12:16:33.000Z,24.40
2019-05-20T12:19:01.543Z,25.50
2019-05-20T12:21:30.088Z,26.60
2019-05-20T12:23:58.577Z,26.40
2019-05-20T12:26:27.112Z,26.30
2019-05-20T12:28:55.647Z,25.70
2019-05-20T12:31:24.129Z,25.50
2019-05-20T12:33:52.663Z,25.40
2019-05-20T12:36:21.595Z,25.00
2019-05-20T12:38:50.199Z,24.80
2019-05-20T12:41:18.752Z,24.60
2019-05-20T12:43:47.290Z,24.50
2019-05-20T12:46:15.776Z,23.80
2019-05-20T12:48:44.374Z,23.20
2019-05-20T12:51:14.638Z,23.10
2019-05-20T12:53:43.439Z,22.90
2019-05-20T12:56:12.067Z,22.80
2019-05-20T12:58:40.602Z,22.80
2019-05-20T13:01:09.160Z,23.00
2019-05-20T13:03:37.691Z,23.10
2019-05-20T13:06:06.546Z,23.10
2019-05-20T13:08:35.083Z,23.20
2019-05-20T13:11:03.919Z,23.00
2019-05-20T13:13:32.379Z,22.60
2019-05-20T13:16:00.871Z,22.40
2019-05-20T13:18:29.403Z,22.00
2019-05-20T13:20:57.962Z,21.70
2019-05-20T13:23:26.427Z,21.60
2019-05-20T13:25:54.984Z,21.70
2019-05-20T13:28:23.519Z,22.10
2019-05-20T13:30:52.075Z,22.20
2019-05-20T13:33:20.607Z,22.40
2019-05-20T13:35:49.164Z,22.40
2019-05-20T13:38:17.850Z,22.40
2019-05-20T13:40:47.518Z,22.50
2019-05-20T13:43:16.633Z,22.20
2019-05-20T13:45:47.998Z,22.00
2019-05-20T13:48:15.388Z,21.80
2019-05-20T13:50:43.989Z,21.60
2019-05-20T13:53:12.552Z,21.40
2019-05-20T13:55:41.080Z,21.30
2019-05-20T13:58:09.563Z,21.30
2019-05-20T14:00:38.668Z,21.40
2019-05-20T14:03:07.228Z,21.40
2019-05-20T14:05:35.767Z,21.60
2019-05-20T14:08:04.396Z,21.50
2019-05-20T14:10:32.928Z,21.30
2019-05-20T14:13:01.490Z,20.90
2019-05-20T14:15:30.015Z,20.70
2019-05-20T14:17:58.551Z,20.60
2019-05-20T14:20:27.103Z,20.60
2019-05-20T14:22:55.635Z,20.60
2019-05-20T14:25:24.179Z,20.50
2019-05-20T14:27:52.631Z,20.50
2019-05-20T14:30:21.187Z,20.40
2019-05-20T14:32:49.728Z,20.30
2019-05-20T14:35:18.282Z,20.30
2019-05-20T14:37:47.118Z,20.30
2019-05-20T14:40:16.516Z,20.20
2019-05-20T14:42:45.039Z,20.00
2019-05-20T14:45:13.891Z,19.90
2019-05-20T14:47:42.381Z,19.70
2019-05-20T14:50:11.240Z,19.50
2019-05-20T14:52:40.052Z,19.30
2019-05-20T14:55:09.829Z,19.10
2019-05-20T14:57:38.375Z,18.90
2019-05-20T15:00:08.279Z,18.80
2019-05-20T15:02:36.819Z,18.70
2019-05-20T15:05:07.704Z,18.60
2019-05-20T15:07:36.334Z,18.50
2019-05-20T15:10:09.811Z,18.50
2019-05-20T15:12:38.768Z,18.40
2019-05-20T15:15:08.946Z,18.40
2019-05-20T15:17:37.572Z,18.40
2019-05-20T15:20:07.710Z,18.30
2019-05-20T15:22:36.263Z,18.30
2019-05-20T15:25:05.964Z,18.30
2019-05-20T15:27:34.770Z,18.10
2019-05-20T15:30:03.790Z,18.00
2019-05-20T15:32:32.392Z,18.00
2019-05-20T15:35:00.958Z,17.90
2019-05-20T15:37:29.484Z,17.80
2019-05-20T15:39:58.115Z,17.80
2019-05-20T15:42:26.992Z,17.70
2019-05-20T15:44:55.546Z,17.70
2019-05-20T15:47:24.076Z,17.60
2019-05-20T15:49:52.642Z,17.50
2019-05-20T15:52:21.181Z,17.50
2019-05-20T15:54:49.727Z,17.40
2019-05-20T15:57:18.252Z,17.30
2019-05-20T15:59:47.182Z,17.20
2019-05-20T16:02:15.775Z,17.20
2019-05-20T16:04:44.328Z,17.10
2019-05-20T16:07:13.132Z,17.00
2019-05-20T16:09:41.694Z,16.90
2019-05-20T16:12:10.237Z,16.80
2019-05-20T16:14:38.780Z,16.70
2019-05-20T16:17:07.313Z,16.70
2019-05-20T16:19:35.863Z,16.60
2019-05-20T16:22:04.863Z,16.60
2019-05-20T16:24:33.343Z,16.50
2019-05-20T16:27:02.225Z,16.40
2019-05-20T16:29:30.779Z,16.30
2019-05-20T16:31:59.235Z,16.20
2019-05-20T16:34:27.895Z,16.10
2019-05-20T16:36:56.434Z,16.00
2019-05-20T16:39:25.051Z,16.00
2019-05-20T16:41:53.499Z,15.90
2019-05-20T16:44:21.984Z,15.90
2019-05-20T16:46:50.507Z,15.90
2019-05-20T16:49:19.124Z,15.90
2019-05-20T16:51:47.963Z,15.90
2019-05-20T16:54:17.047Z,15.90
2019-05-20T16:56:45.500Z,15.90
2019-05-20T16:59:14.019Z,16.00
2019-05-20T17:01:46.302Z,16.00
2019-05-20T17:04:12.751Z,16.00
2019-05-20T17:06:41.241Z,16.00
2019-05-20T17:09:10.036Z,16.00
2019-05-20T17:11:38.594Z,16.10
2019-05-20T17:14:10.438Z,16.10
2019-05-20T17:16:37.328Z,16.00
2019-05-20T17:19:05.859Z,16.00
2019-05-20T17:21:34.339Z,16.00
2019-05-20T17:24:02.800Z,16.00
2019-05-20T17:26:31.429Z,15.90
2019-05-20T17:29:00.027Z,15.90
2019-05-20T17:31:30.783Z,15.90
2019-05-20T17:33:58.850Z,15.90
2019-05-20T17:36:27.394Z,15.80
2019-05-20T17:38:55.924Z,15.80
2019-05-20T17:41:24.491Z,15.80
2019-05-20T17:43:53.336Z,15.80
2019-05-20T17:46:22.203Z,15.80
2019-05-20T17:48:51.020Z,15.80
2019-05-20T17:51:19.648Z,15.80
2019-05-20T17:53:48.509Z,15.80
2019-05-20T17:56:17.064Z,15.80
2019-05-20T17:58:45.616Z,15.80
2019-05-20T18:01:16.079Z,15.80
2019-05-20T18:03:44.367Z,15.70
2019-05-20T18:06:12.847Z,15.70
2019-05-20T18:08:42.947Z,15.70
2019-05-20T18:11:11.511Z,15.70
2019-05-20T18:13:40.327Z,15.60
2019-05-20T18:16:09.120Z,15.60
2019-05-20T18:18:37.911Z,15.60
2019-05-20T18:21:06.695Z,15.60
2019-05-20T18:23:35.184Z,15.50
2019-05-20T18:26:03.926Z,15.50
2019-05-20T18:28:32.512Z,15.50
2019-05-20T18:31:01.259Z,15.40
2019-05-20T18:33:29.795Z,15.40
2019-05-20T18:35:58.725Z,15.40
2019-05-20T18:38:27.244Z,15.30
2019-05-20T18:40:55.727Z,15.30
2019-05-20T18:43:24.186Z,15.30
2019-05-20T18:45:52.670Z,15.30
2019-05-20T18:48:21.127Z,15.20
2019-05-20T18:50:49.611Z,15.20
2019-05-20T18:53:18.399Z,15.20
2019-05-20T18:55:46.960Z,15.20
2019-05-20T18:58:15.419Z,15.20
2019-05-20T19:00:44.343Z,15.10
2019-05-20T19:03:13.161Z,15.10
2019-05-20T19:05:41.704Z,15.10
2019-05-20T19:08:10.321Z,15.10
2019-05-20T19:10:38.951Z,15.10
2019-05-20T19:13:07.505Z,15.10
2019-05-20T19:15:36.203Z,15.10
2019-05-20T19:18:05.175Z,15.10
2019-05-20T19:20:33.659Z,15.10
2019-05-20T19:23:02.262Z,15.00
2019-05-20T19:25:37.865Z,15.00
2019-05-20T19:28:00.984Z,15.00
2019-05-20T19:30:29.810Z,15.00
2019-05-20T19:32:58.299Z,15.00
2019-05-20T19:35:26.828Z,15.00
2019-05-20T19:37:55.565Z,15.00
2019-05-20T19:40:24.456Z,15.00
2019-05-20T19:42:52.987Z,15.00
2019-05-20T19:45:21.547Z,15.00
2019-05-20T19:47:50.272Z,15.00
2019-05-20T19:50:18.849Z,15.00
2019-05-20T19:52:47.446Z,14.90
2019-05-20T19:55:18.746Z,14.90
2019-05-20T19:57:46.263Z,15.00
2019-05-20T20:00:15.132Z,14.90
2019-05-20T20:02:43.705Z,14.90
2019-05-20T20:05:12.474Z,14.90
2019-05-20T20:07:41.000Z,14.90
2019-05-20T20:10:09.632Z,15.00
2019-05-20T20:12:38.223Z,15.00
2019-05-20T20:15:07.150Z,15.00
2019-05-20T20:17:35.682Z,15.00
2019-05-20T20:20:05.407Z,15.00
2019-05-20T20:22:33.871Z,15.00
2019-05-20T20:25:02.426Z,15.00
2019-05-20T20:27:31.352Z,14.90
2019-05-20T20:29:59.831Z,15.00
2019-05-20T20:32:38.052Z,14.90
2019-05-20T20:34:58.609Z,15.00
2019-05-20T20:37:27.169Z,15.00
2019-05-20T20:39:55.839Z,14.90
2019-05-20T20:42:24.400Z,14.90
2019-05-20T20:44:52.855Z,14.90
2019-05-20T20:47:21.420Z,14.90
2019-05-20T20:49:49.991Z,14.90
2019-05-20T20:52:18.516Z,14.90
2019-05-20T20:54:46.972Z,14.90
2019-05-20T20:57:15.459Z,14.90
2019-05-20T20:59:43.991Z,14.90
2019-05-20T21:02:12.557Z,14.90
2019-05-20T21:04:41.513Z,14.90
2019-05-20T21:07:10.134Z,14.90
2019-05-20T21:09:38.671Z,14.90
2019-05-20T21:12:07.300Z,14.90
2019-05-20T21:14:35.760Z,14.90
2019-05-20T21:17:04.450Z,14.90
2019-05-20T21:19:33.043Z,14.90
2019-05-20T21:22:01.507Z,14.80
2019-05-20T21:24:30.065Z,14.80
2019-05-20T21:26:58.600Z,14.80
2019-05-20T21:29:27.112Z,14.80
2019-05-20T21:31:55.573Z,14.80
2019-05-20T21:34:24.131Z,14.80
2019-05-20T21:36:52.587Z,14.80
2019-05-20T21:39:21.080Z,14.80
2019-05-20T21:41:49.603Z,14.80
2019-05-20T21:44:18.167Z,14.80
2019-05-20T21:46:46.754Z,14.80
2019-05-20T21:49:15.260Z,14.70
2019-05-20T21:51:43.719Z,14.80
2019-05-20T21:54:12.495Z,14.70
2019-05-20T21:56:41.411Z,14.70
2019-05-20T21:59:09.971Z,14.70
2019-05-20T22:01:38.964Z,14.80
2019-05-20T22:04:07.763Z,14.80
2019-05-20T22:06:36.231Z,14.80
2019-05-20T22:09:06.854Z,14.70
2019-05-20T22:11:35.315Z,14.70
2019-05-20T22:14:03.952Z,14.80
2019-05-20T22:16:32.416Z,14.80
2019-05-20T22:19:00.903Z,14.80
2019-05-20T22:21:37.010Z,14.80
2019-05-20T22:24:07.582Z,14.70
2019-05-20T22:26:36.463Z,14.80
2019-05-20T22:29:04.943Z,14.70
2019-05-20T22:31:51.424Z,14.70
2019-05-20T22:34:20.239Z,14.80
2019-05-20T22:36:48.709Z,14.70
2019-05-20T22:39:17.262Z,14.70
2019-05-20T22:41:45.999Z,14.70
2019-05-20T22:44:14.575Z,14.70
2019-05-20T22:46:43.037Z,14.70
2019-05-20T22:49:11.568Z,14.70
2019-05-20T22:51:40.056Z,14.70
2019-05-20T22:54:08.611Z,14.70
2019-05-20T22:56:37.195Z,14.70
2019-05-20T22:59:05.658Z,14.60
2019-05-20T23:01:34.227Z,14.60
2019-05-20T23:04:38.927Z,14.60
2019-05-20T23:07:07.418Z,14.60
2019-05-20T23:09:35.951Z,14.60
2019-05-20T23:12:04.510Z,14.50
2019-05-20T23:14:33.047Z,14.50
2019-05-20T23:17:01.507Z,14.50
2019-05-20T23:19:30.063Z,14.50
2019-05-20T23:21:58.527Z,14.50
2019-05-20T23:24:27.015Z,14.50
2019-05-20T23:26:55.551Z,14.50
2019-05-20T23:29:24.415Z,14.50
2019-05-20T23:31:53.208Z,14.50
2019-05-20T23:34:21.667Z,14.50
2019-05-20T23:36:50.148Z,14.50
2019-05-20T23:39:18.683Z,14.50
2019-05-20T23:41:47.171Z,14.50
2019-05-20T23:44:15.706Z,14.50
2019-05-20T23:46:44.268Z,14.50
2019-05-20T23:49:13.083Z,14.50
2019-05-20T23:51:41.875Z,14.50
2019-05-20T23:54:10.668Z,14.50
2019-05-20T23:56:39.128Z,14.50
2019-05-20T23:59:07.682Z,14.50
